sensor_id;sensor_type;location;lat;lon;timestamp;pressure;altitude;pressure_sealevel;temperature;humidity
30554;BME280;17335;50.720;7.452;2023-03-23T00:00:08;98288.91;;;11.06;100.00
30554;BME280;17335;50.720;7.452;2023-03-23T00:02:34;98289.41;;;11.02;100.00
30554;BME280;17335;50.720;7.452;2023-03-23T00:05:02;98295.09;;;11.07;100.00
30554;BME280;17335;50.720;7.452;2023-03-23T00:07:29;98278.81;;;11.08;100.00
30554;BME280;17335;50.720;7.452;2023-03-23T00:09:55;98262.53;;;11.10;100.00
30554;BME280;17335;50.720;7.452;2023-03-23T00:12:26;98269.91;;;11.16;100.00
30554;BME280;17335;50.720;7.452;2023-03-23T00:15:04;98262.16;;;11.21;100.00
30554;BME280;17335;50.720;7.452;2023-03-23T00:17:30;98273.56;;;11.23;100.00
30554;BME280;17335;50.720;7.452;2023-03-23T00:19:59;98277.44;;;11.21;100.00
30554;BME280;17335;50.720;7.452;2023-03-23T00:22:27;98265.16;;;11.26;100.00
30554;BME280;17335;50.720;7.452;2023-03-23T00:24:53;98265.81;;;11.29;100.00
30554;BME280;17335;50.720;7.452;2023-03-23T00:27:20;98257.06;;;11.35;100.00
30554;BME280;17335;50.720;7.452;2023-03-23T00:29:50;98269.78;;;11.33;100.00
30554;BME280;17335;50.720;7.452;2023-03-23T00:32:21;98269.09;;;11.39;100.00
30554;BME280;17335;50.720;7.452;2023-03-23T00:34:56;98265.28;;;11.33;100.00
30554;BME280;17335;50.720;7.452;2023-03-23T00:37:24;98244.13;;;11.30;100.00
30554;BME280;17335;50.720;7.452;2023-03-23T00:39:50;98256.56;;;11.31;100.00
30554;BME280;17335;50.720;7.452;2023-03-23T00:42:17;98260.75;;;11.34;100.00
30554;BME280;17335;50.720;7.452;2023-03-23T00:44:43;98265.47;;;11.32;100.00
30554;BME280;17335;50.720;7.452;2023-03-23T00:47:10;98264.72;;;11.38;100.00
30554;BME280;17335;50.720;7.452;2023-03-23T00:49:37;98256.19;;;11.34;100.00
30554;BME280;17335;50.720;7.452;2023-03-23T00:52:04;98246.78;;;11.38;100.00
30554;BME280;17335;50.720;7.452;2023-03-23T00:54:31;98245.09;;;11.37;100.00
30554;BME280;17335;50.720;7.452;2023-03-23T00:56:59;98249.28;;;11.40;100.00
30554;BME280;17335;50.720;7.452;2023-03-23T00:59:25;98258.00;;;11.42;100.00
30554;BME280;17335;50.720;7.452;2023-03-23T01:01:51;98249.66;;;11.37;100.00
30554;BME280;17335;50.720;7.452;2023-03-23T01:04:16;98249.66;;;11.37;100.00
30554;BME280;17335;50.720;7.452;2023-03-23T01:06:43;98239.41;;;11.32;100.00
30554;BME280;17335;50.720;7.452;2023-03-23T01:09:12;98229.69;;;11.31;100.00
30554;BME280;17335;50.720;7.452;2023-03-23T01:11:41;98220.97;;;11.29;100.00
30554;BME280;17335;50.720;7.452;2023-03-23T01:14:07;98227.66;;;11.33;100.00
30554;BME280;17335;50.720;7.452;2023-03-23T01:16:33;98230.53;;;11.32;100.00
30554;BME280;17335;50.720;7.452;2023-03-23T01:18:59;98234.88;;;11.33;100.00
30554;BME280;17335;50.720;7.452;2023-03-23T01:21:24;98234.94;;;11.24;100.00
30554;BME280;17335;50.720;7.452;2023-03-23T01:23:50;98240.66;;;11.21;100.00
30554;BME280;17335;50.720;7.452;2023-03-23T01:26:19;98228.94;;;11.14;100.00
30554;BME280;17335;50.720;7.452;2023-03-23T01:28:45;98240.72;;;11.05;100.00
30554;BME280;17335;50.720;7.452;2023-03-23T01:31:14;98232.50;;;11.06;100.00
30554;BME280;17335;50.720;7.452;2023-03-23T01:33:41;98229.97;;;11.05;100.00
30554;BME280;17335;50.720;7.452;2023-03-23T01:36:13;98234.38;;;10.98;100.00
30554;BME280;17335;50.720;7.452;2023-03-23T01:38:42;98231.91;;;10.88;100.00
30554;BME280;17335;50.720;7.452;2023-03-23T01:41:08;98233.94;;;10.78;100.00
30554;BME280;17335;50.720;7.452;2023-03-23T01:43:35;98226.78;;;10.70;100.00
30554;BME280;17335;50.720;7.452;2023-03-23T01:46:01;98233.16;;;10.69;100.00
30554;BME280;17335;50.720;7.452;2023-03-23T01:48:32;98227.13;;;10.59;100.00
30554;BME280;17335;50.720;7.452;2023-03-23T01:51:09;98229.19;;;10.48;100.00
30554;BME280;17335;50.720;7.452;2023-03-23T01:53:41;98229.19;;;10.48;100.00
30554;BME280;17335;50.720;7.452;2023-03-23T01:56:09;98227.53;;;10.47;100.00
30554;BME280;17335;50.720;7.452;2023-03-23T01:58:38;98231.75;;;10.42;100.00
30554;BME280;17335;50.720;7.452;2023-03-23T02:01:09;98238.59;;;10.36;100.00
30554;BME280;17335;50.720;7.452;2023-03-23T02:03:39;98248.31;;;10.29;100.00
30554;BME280;17335;50.720;7.452;2023-03-23T02:06:07;98240.25;;;10.29;100.00
30554;BME280;17335;50.720;7.452;2023-03-23T02:08:33;98238.25;;;10.31;100.00
30554;BME280;17335;50.720;7.452;2023-03-23T02:10:59;98248.50;;;10.36;100.00
30554;BME280;17335;50.720;7.452;2023-03-23T02:13:26;98257.88;;;10.40;100.00
30554;BME280;17335;50.720;7.452;2023-03-23T02:16:21;98240.63;;;10.42;100.00
30554;BME280;17335;50.720;7.452;2023-03-23T02:27:11;98252.34;;;10.33;100.00
30554;BME280;17335;50.720;7.452;2023-03-23T02:30:06;98262.38;;;10.31;100.00
30554;BME280;17335;50.720;7.452;2023-03-23T02:36:10;98259.22;;;10.27;100.00
30554;BME280;17335;50.720;7.452;2023-03-23T02:38:22;98261.56;;;10.30;100.00
30554;BME280;17335;50.720;7.452;2023-03-23T02:40:53;98264.06;;;10.24;100.00
30554;BME280;17335;50.720;7.452;2023-03-23T02:43:21;98261.22;;;10.25;100.00
30554;BME280;17335;50.720;7.452;2023-03-23T02:45:50;98261.88;;;10.27;100.00
30554;BME280;17335;50.720;7.452;2023-03-23T02:48:18;98250.34;;;10.27;100.00
30554;BME280;17335;50.720;7.452;2023-03-23T02:50:47;98252.53;;;10.23;100.00
30554;BME280;17335;50.720;7.452;2023-03-23T02:53:18;98248.66;;;10.26;100.00
30554;BME280;17335;50.720;7.452;2023-03-23T02:55:50;98246.63;;;10.28;100.00
30554;BME280;17335;50.720;7.452;2023-03-23T02:58:18;98242.94;;;10.29;100.00
30554;BME280;17335;50.720;7.452;2023-03-23T03:00:44;98235.56;;;10.23;100.00
30554;BME280;17335;50.720;7.452;2023-03-23T03:03:20;98238.78;;;10.18;100.00
30554;BME280;17335;50.720;7.452;2023-03-23T03:06:25;98223.84;;;10.16;100.00
30554;BME280;17335;50.720;7.452;2023-03-23T03:09:04;98226.88;;;10.21;100.00
30554;BME280;17335;50.720;7.452;2023-03-23T03:11:32;98237.25;;;10.16;100.00
30554;BME280;17335;50.720;7.452;2023-03-23T03:14:05;98237.44;;;10.22;100.00
30554;BME280;17335;50.720;7.452;2023-03-23T03:19:20;98245.13;;;10.17;100.00
30554;BME280;17335;50.720;7.452;2023-03-23T03:21:52;98241.78;;;10.15;100.00
30554;BME280;17335;50.720;7.452;2023-03-23T03:24:20;98230.41;;;10.13;100.00
30554;BME280;17335;50.720;7.452;2023-03-23T03:26:48;98239.28;;;10.05;100.00
30554;BME280;17335;50.720;7.452;2023-03-23T03:29:20;98208.28;;;10.03;100.00
30554;BME280;17335;50.720;7.452;2023-03-23T03:31:51;98203.09;;;10.01;100.00
30554;BME280;17335;50.720;7.452;2023-03-23T03:34:21;98215.84;;;10.07;100.00
30554;BME280;17335;50.720;7.452;2023-03-23T03:36:47;98206.44;;;9.95;100.00
30554;BME280;17335;50.720;7.452;2023-03-23T03:39:15;98199.06;;;10.05;100.00
30554;BME280;17335;50.720;7.452;2023-03-23T03:41:43;98209.97;;;9.95;100.00
30554;BME280;17335;50.720;7.452;2023-03-23T03:44:08;98207.81;;;9.99;100.00
30554;BME280;17335;50.720;7.452;2023-03-23T03:46:35;98199.91;;;9.98;100.00
30554;BME280;17335;50.720;7.452;2023-03-23T03:49:03;98193.38;;;10.00;100.00
30554;BME280;17335;50.720;7.452;2023-03-23T03:51:29;98188.03;;;9.92;100.00
30554;BME280;17335;50.720;7.452;2023-03-23T03:53:55;98178.97;;;10.01;100.00
30554;BME280;17335;50.720;7.452;2023-03-23T03:56:22;98181.31;;;10.04;100.00
30554;BME280;17335;50.720;7.452;2023-03-23T03:58:48;98201.25;;;10.02;100.00
30554;BME280;17335;50.720;7.452;2023-03-23T04:01:16;98217.00;;;10.05;100.00
30554;BME280;17335;50.720;7.452;2023-03-23T04:03:43;98224.88;;;10.06;100.00
30554;BME280;17335;50.720;7.452;2023-03-23T04:06:10;98229.91;;;10.01;100.00
30554;BME280;17335;50.720;7.452;2023-03-23T04:08:36;98242.66;;;9.91;100.00
30554;BME280;17335;50.720;7.452;2023-03-23T04:11:03;98245.34;;;9.99;100.00
30554;BME280;17335;50.720;7.452;2023-03-23T04:13:29;98244.66;;;9.97;100.00
30554;BME280;17335;50.720;7.452;2023-03-23T04:15:55;98252.34;;;10.00;100.00
30554;BME280;17335;50.720;7.452;2023-03-23T04:18:21;98246.81;;;10.02;100.00
30554;BME280;17335;50.720;7.452;2023-03-23T04:20:48;98239.47;;;9.95;100.00
30554;BME280;17335;50.720;7.452;2023-03-23T04:23:15;98230.72;;;9.93;100.00
30554;BME280;17335;50.720;7.452;2023-03-23T04:25:49;98225.38;;;9.93;100.00
30554;BME280;17335;50.720;7.452;2023-03-23T04:28:18;98231.25;;;9.97;100.00
30554;BME280;17335;50.720;7.452;2023-03-23T04:30:45;98229.41;;;10.06;100.00
30554;BME280;17335;50.720;7.452;2023-03-23T04:33:14;98231.94;;;9.99;100.00
30554;BME280;17335;50.720;7.452;2023-03-23T04:35:41;98232.59;;;10.01;100.00
30554;BME280;17335;50.720;7.452;2023-03-23T04:38:08;98231.41;;;10.04;100.00
30554;BME280;17335;50.720;7.452;2023-03-23T04:40:39;98243.97;;;9.95;100.00
30554;BME280;17335;50.720;7.452;2023-03-23T04:43:05;98241.13;;;9.97;100.00
30554;BME280;17335;50.720;7.452;2023-03-23T04:45:33;98251.53;;;10.08;100.00
30554;BME280;17335;50.720;7.452;2023-03-23T04:47:59;98257.06;;;9.98;100.00
30554;BME280;17335;50.720;7.452;2023-03-23T04:50:30;98253.38;;;9.99;100.00
30554;BME280;17335;50.720;7.452;2023-03-23T04:53:01;98250.88;;;10.06;100.00
30554;BME280;17335;50.720;7.452;2023-03-23T04:55:32;98253.38;;;9.99;100.00
30554;BME280;17335;50.720;7.452;2023-03-23T04:58:05;98256.38;;;9.96;100.00
30554;BME280;17335;50.720;7.452;2023-03-23T05:00:35;98255.72;;;10.02;100.00
30554;BME280;17335;50.720;7.452;2023-03-23T05:03:01;98253.72;;;10.04;100.00
30554;BME280;17335;50.720;7.452;2023-03-23T05:05:27;98246.16;;;10.00;100.00
30554;BME280;17335;50.720;7.452;2023-03-23T05:07:55;98264.75;;;9.93;100.00
30554;BME280;17335;50.720;7.452;2023-03-23T05:10:21;98265.59;;;9.93;100.00
30554;BME280;17335;50.720;7.452;2023-03-23T05:12:46;98270.13;;;9.93;100.00
30554;BME280;17335;50.720;7.452;2023-03-23T05:15:15;98261.75;;;9.96;100.00
30554;BME280;17335;50.720;7.452;2023-03-23T05:17:41;98264.75;;;10.01;100.00
30554;BME280;17335;50.720;7.452;2023-03-23T05:20:14;98269.44;;;9.91;100.00
30554;BME280;17335;50.720;7.452;2023-03-23T05:22:41;98256.38;;;9.96;100.00
30554;BME280;17335;50.720;7.452;2023-03-23T05:25:08;98258.72;;;9.91;100.00
30554;BME280;17335;50.720;7.452;2023-03-23T05:27:36;98248.34;;;9.88;100.00
30554;BME280;17335;50.720;7.452;2023-03-23T05:30:02;98245.00;;;9.86;100.00
30554;BME280;17335;50.720;7.452;2023-03-23T05:32:28;98251.50;;;9.83;100.00
30554;BME280;17335;50.720;7.452;2023-03-23T05:34:57;98251.19;;;9.86;100.00
30554;BME280;17335;50.720;7.452;2023-03-23T05:37:23;98239.78;;;9.84;100.00
30554;BME280;17335;50.720;7.452;2023-03-23T05:39:50;98239.78;;;9.84;100.00
30554;BME280;17335;50.720;7.452;2023-03-23T05:42:20;98230.75;;;9.85;100.00
30554;BME280;17335;50.720;7.452;2023-03-23T05:44:46;98236.63;;;9.81;100.00
30554;BME280;17335;50.720;7.452;2023-03-23T05:47:12;98239.97;;;9.83;100.00
30554;BME280;17335;50.720;7.452;2023-03-23T05:49:38;98238.63;;;9.87;100.00
30554;BME280;17335;50.720;7.452;2023-03-23T05:52:03;98243.31;;;9.85;100.00
30554;BME280;17335;50.720;7.452;2023-03-23T05:54:29;98248.00;;;9.83;100.00
30554;BME280;17335;50.720;7.452;2023-03-23T05:56:55;98251.00;;;9.80;100.00
30554;BME280;17335;50.720;7.452;2023-03-23T05:59:21;98254.34;;;9.90;100.00
30554;BME280;17335;50.720;7.452;2023-03-23T06:01:46;98255.72;;;9.94;100.00
30554;BME280;17335;50.720;7.452;2023-03-23T06:04:12;98253.69;;;9.88;100.00
30554;BME280;17335;50.720;7.452;2023-03-23T06:06:39;98265.94;;;9.90;100.00
30554;BME280;17335;50.720;7.452;2023-03-23T06:09:06;98261.75;;;9.96;100.00
30554;BME280;17335;50.720;7.452;2023-03-23T06:11:32;98278.84;;;10.03;100.00
30554;BME280;17335;50.720;7.452;2023-03-23T06:13:58;98280.19;;;10.07;100.00
30554;BME280;17335;50.720;7.452;2023-03-23T06:16:23;98273.47;;;10.03;100.00
30554;BME280;17335;50.720;7.452;2023-03-23T06:18:49;98269.78;;;10.12;100.00
30554;BME280;17335;50.720;7.452;2023-03-23T06:21:15;98269.78;;;10.12;100.00
30554;BME280;17335;50.720;7.452;2023-03-23T06:23:44;98267.09;;;10.12;100.00
30554;BME280;17335;50.720;7.452;2023-03-23T06:26:12;98269.97;;;10.11;100.00
30554;BME280;17335;50.720;7.452;2023-03-23T06:28:39;98261.44;;;10.07;100.00
30554;BME280;17335;50.720;7.452;2023-03-23T06:31:06;98265.09;;;10.14;100.00
30554;BME280;17335;50.720;7.452;2023-03-23T06:33:37;98257.38;;;10.20;100.00
30554;BME280;17335;50.720;7.452;2023-03-23T06:36:04;98256.69;;;10.18;100.00
30554;BME280;17335;50.720;7.452;2023-03-23T06:38:30;98257.19;;;10.29;100.00
30554;BME280;17335;50.720;7.452;2023-03-23T06:40:56;98270.78;;;10.36;100.00
30554;BME280;17335;50.720;7.452;2023-03-23T06:43:23;98283.03;;;10.39;100.00
30554;BME280;17335;50.720;7.452;2023-03-23T06:45:49;98284.03;;;10.38;100.00
30554;BME280;17335;50.720;7.452;2023-03-23T06:48:16;98276.50;;;10.33;100.00
30554;BME280;17335;50.720;7.452;2023-03-23T06:50:45;98267.78;;;10.39;100.00
30554;BME280;17335;50.720;7.452;2023-03-23T06:53:11;98268.59;;;10.40;100.00
30554;BME280;17335;50.720;7.452;2023-03-23T06:55:38;98269.97;;;10.44;100.00
30554;BME280;17335;50.720;7.452;2023-03-23T06:58:05;98282.19;;;10.46;100.00
30554;BME280;17335;50.720;7.452;2023-03-23T07:00:32;98281.19;;;10.56;100.00
30554;BME280;17335;50.720;7.452;2023-03-23T07:02:58;98295.59;;;10.63;100.00
30554;BME280;17335;50.720;7.452;2023-03-23T07:05:23;98300.25;;;10.69;100.00
30554;BME280;17335;50.720;7.452;2023-03-23T07:07:49;98289.88;;;10.66;100.00
30554;BME280;17335;50.720;7.452;2023-03-23T07:10:15;98288.84;;;10.75;100.00
30554;BME280;17335;50.720;7.452;2023-03-23T07:12:40;98275.06;;;10.86;100.00
30554;BME280;17335;50.720;7.452;2023-03-23T07:15:08;98285.09;;;10.93;100.00
30554;BME280;17335;50.720;7.452;2023-03-23T07:17:38;98284.44;;;10.91;100.00
30554;BME280;17335;50.720;7.452;2023-03-23T07:20:06;98286.06;;;11.00;100.00
30554;BME280;17335;50.720;7.452;2023-03-23T07:22:32;98290.09;;;11.04;100.00
30554;BME280;17335;50.720;7.452;2023-03-23T07:24:57;98293.75;;;11.11;100.00
30554;BME280;17335;50.720;7.452;2023-03-23T07:27:23;98289.69;;;11.15;100.00
30554;BME280;17335;50.720;7.452;2023-03-23T07:29:49;98294.91;;;11.17;100.00
30554;BME280;17335;50.720;7.452;2023-03-23T07:32:15;98286.16;;;11.23;100.00
30554;BME280;17335;50.720;7.452;2023-03-23T07:34:41;98282.25;;;11.25;100.00
30554;BME280;17335;50.720;7.452;2023-03-23T07:37:06;98276.56;;;11.29;100.00
30554;BME280;17335;50.720;7.452;2023-03-23T07:39:33;98282.22;;;11.34;100.00
30554;BME280;17335;50.720;7.452;2023-03-23T07:41:59;98277.50;;;11.36;100.00
30554;BME280;17335;50.720;7.452;2023-03-23T07:44:25;98276.03;;;11.33;100.00
30554;BME280;17335;50.720;7.452;2023-03-23T07:46:51;98285.22;;;11.39;100.00
30554;BME280;17335;50.720;7.452;2023-03-23T07:49:17;98282.19;;;11.42;100.00
30554;BME280;17335;50.720;7.452;2023-03-23T07:51:43;98282.19;;;11.42;100.00
30554;BME280;17335;50.720;7.452;2023-03-23T07:54:09;98285.84;;;11.49;100.00
30554;BME280;17335;50.720;7.452;2023-03-23T07:56:36;98287.16;;;11.53;100.00
30554;BME280;17335;50.720;7.452;2023-03-23T07:59:03;98291.53;;;11.54;100.00
30554;BME280;17335;50.720;7.452;2023-03-23T08:01:30;98283.78;;;11.59;100.00
30554;BME280;17335;50.720;7.452;2023-03-23T08:03:56;98286.47;;;11.59;100.00
30554;BME280;17335;50.720;7.452;2023-03-23T08:06:24;98289.28;;;11.66;100.00
30554;BME280;17335;50.720;7.452;2023-03-23T08:08:50;98278.00;;;11.71;100.00
30554;BME280;17335;50.720;7.452;2023-03-23T08:11:17;98275.47;;;11.69;100.00
30554;BME280;17335;50.720;7.452;2023-03-23T08:13:45;98273.94;;;11.75;100.00
30554;BME280;17335;50.720;7.452;2023-03-23T08:16:11;98273.56;;;11.78;100.00
30554;BME280;17335;50.720;7.452;2023-03-23T08:18:39;98274.19;;;11.88;100.00
30554;BME280;17335;50.720;7.452;2023-03-23T08:21:05;98282.41;;;11.87;100.00
30554;BME280;17335;50.720;7.452;2023-03-23T08:23:35;98280.72;;;11.94;100.00
30554;BME280;17335;50.720;7.452;2023-03-23T08:26:06;98280.53;;;11.95;100.00
30554;BME280;17335;50.720;7.452;2023-03-23T08:28:34;98287.28;;;11.91;100.00
30554;BME280;17335;50.720;7.452;2023-03-23T08:31:00;98281.88;;;11.91;100.00
30554;BME280;17335;50.720;7.452;2023-03-23T08:33:32;98284.69;;;11.98;100.00
30554;BME280;17335;50.720;7.452;2023-03-23T08:35:59;98282.56;;;11.93;100.00
30554;BME280;17335;50.720;7.452;2023-03-23T08:38:25;98284.22;;;11.94;100.00
30554;BME280;17335;50.720;7.452;2023-03-23T08:40:57;98284.88;;;11.96;100.00
30554;BME280;17335;50.720;7.452;2023-03-23T08:43:22;98282.88;;;11.98;100.00
30554;BME280;17335;50.720;7.452;2023-03-23T08:45:49;98291.59;;;12.00;100.00
30554;BME280;17335;50.720;7.452;2023-03-23T08:48:15;98292.94;;;11.96;100.00
30554;BME280;17335;50.720;7.452;2023-03-23T08:50:41;98290.63;;;11.93;100.00
30554;BME280;17335;50.720;7.452;2023-03-23T08:53:07;98282.50;;;12.01;100.00
30554;BME280;17335;50.720;7.452;2023-03-23T08:55:32;98295.75;;;12.03;100.00
30554;BME280;17335;50.720;7.452;2023-03-23T08:57:58;98290.94;;;11.98;100.00
30554;BME280;17335;50.720;7.452;2023-03-23T09:00:23;98276.28;;;12.01;100.00
30554;BME280;17335;50.720;7.452;2023-03-23T09:02:52;98274.66;;;12.15;100.00
30554;BME280;17335;50.720;7.452;2023-03-23T09:05:21;98279.69;;;12.18;100.00
30554;BME280;17335;50.720;7.452;2023-03-23T09:07:49;98285.41;;;12.15;100.00
30554;BME280;17335;50.720;7.452;2023-03-23T09:10:16;98283.00;;;12.20;100.00
30554;BME280;17335;50.720;7.452;2023-03-23T09:12:43;98283.59;;;12.30;100.00
30554;BME280;17335;50.720;7.452;2023-03-23T09:15:10;98287.91;;;12.40;100.00
30554;BME280;17335;50.720;7.452;2023-03-23T09:17:43;98291.81;;;12.52;100.00
30554;BME280;17335;50.720;7.452;2023-03-23T09:20:11;98285.34;;;12.61;100.00
30554;BME280;17335;50.720;7.452;2023-03-23T09:22:44;98275.78;;;12.59;100.00
30554;BME280;17335;50.720;7.452;2023-03-23T09:25:12;98296.34;;;12.51;100.00
30554;BME280;17335;50.720;7.452;2023-03-23T09:27:40;98297.22;;;12.52;100.00
30554;BME280;17335;50.720;7.452;2023-03-23T09:30:08;98293.47;;;12.53;100.00
30554;BME280;17335;50.720;7.452;2023-03-23T09:32:36;98298.31;;;12.57;100.00
30554;BME280;17335;50.720;7.452;2023-03-23T09:35:03;98305.94;;;12.54;100.00
30554;BME280;17335;50.720;7.452;2023-03-23T09:37:31;98313.00;;;12.55;100.00
30554;BME280;17335;50.720;7.452;2023-03-23T09:39:58;98308.34;;;12.49;100.00
30554;BME280;17335;50.720;7.452;2023-03-23T09:50:42;98316.84;;;12.37;100.00
30554;BME280;17335;50.720;7.452;2023-03-23T09:53:16;98322.31;;;12.29;100.00
30554;BME280;17335;50.720;7.452;2023-03-23T09:55:43;98325.28;;;12.34;100.00
30554;BME280;17335;50.720;7.452;2023-03-23T09:58:31;98315.28;;;12.43;100.00
30554;BME280;17335;50.720;7.452;2023-03-23T10:03:44;98312.00;;;12.86;100.00
30554;BME280;17335;50.720;7.452;2023-03-23T10:06:13;98321.19;;;13.06;100.00
30554;BME280;17335;50.720;7.452;2023-03-23T10:08:51;98324.25;;;13.18;100.00
30554;BME280;17335;50.720;7.452;2023-03-23T10:16:58;98313.22;;;12.98;100.00
30554;BME280;17335;50.720;7.452;2023-03-23T10:22:09;98313.13;;;13.06;100.00
30554;BME280;17335;50.720;7.452;2023-03-23T10:24:43;98316.03;;;13.05;100.00
30554;BME280;17335;50.720;7.452;2023-03-23T10:27:33;98325.03;;;13.12;100.00
30554;BME280;17335;50.720;7.452;2023-03-23T10:30:20;98317.66;;;13.06;100.00
30554;BME280;17335;50.720;7.452;2023-03-23T10:33:57;98320.28;;;12.99;100.00
30554;BME280;17335;50.720;7.452;2023-03-23T10:36:08;98321.09;;;12.85;100.00
30554;BME280;17335;50.720;7.452;2023-03-23T10:38:40;98324.41;;;12.72;100.00
30554;BME280;17335;50.720;7.452;2023-03-23T10:41:15;98328.03;;;12.64;100.00
30554;BME280;17335;50.720;7.452;2023-03-23T10:43:42;98334.72;;;12.68;100.00
30554;BME280;17335;50.720;7.452;2023-03-23T10:48:51;98344.03;;;12.81;100.00
30554;BME280;17335;50.720;7.452;2023-03-23T10:51:20;98332.63;;;12.93;100.00
30554;BME280;17335;50.720;7.452;2023-03-23T10:53:57;98332.06;;;13.13;100.00
30554;BME280;17335;50.720;7.452;2023-03-23T10:56:29;98331.56;;;13.32;100.00
30554;BME280;17335;50.720;7.452;2023-03-23T10:58:59;98335.16;;;13.40;100.00
30554;BME280;17335;50.720;7.452;2023-03-23T11:01:33;98342.44;;;13.39;100.00
30554;BME280;17335;50.720;7.452;2023-03-23T11:04:00;98332.69;;;13.60;100.00
30554;BME280;17335;50.720;7.452;2023-03-23T11:06:30;98342.66;;;13.59;100.00
30554;BME280;17335;50.720;7.452;2023-03-23T11:09:10;98330.41;;;13.42;100.00
30554;BME280;17335;50.720;7.452;2023-03-23T11:11:40;98338.94;;;13.30;100.00
30554;BME280;17335;50.720;7.452;2023-03-23T11:14:24;98321.84;;;13.23;100.00
30554;BME280;17335;50.720;7.452;2023-03-23T11:16:52;98321.38;;;13.20;100.00
30554;BME280;17335;50.720;7.452;2023-03-23T11:21:54;98332.72;;;13.30;100.00
30554;BME280;17335;50.720;7.452;2023-03-23T11:24:22;98336.16;;;13.39;100.00
30554;BME280;17335;50.720;7.452;2023-03-23T11:26:49;98324.09;;;13.49;100.00
30554;BME280;17335;50.720;7.452;2023-03-23T11:29:19;98323.22;;;13.64;100.00
30554;BME280;17335;50.720;7.452;2023-03-23T11:31:48;98329.78;;;13.76;100.00
30554;BME280;17335;50.720;7.452;2023-03-23T11:36:50;98324.94;;;13.72;100.00
30554;BME280;17335;50.720;7.452;2023-03-23T11:39:29;98322.84;;;13.67;100.00
30554;BME280;17335;50.720;7.452;2023-03-23T11:41:58;98321.53;;;13.63;100.00
30554;BME280;17335;50.720;7.452;2023-03-23T11:44:31;98322.69;;;13.54;100.00
30554;BME280;17335;50.720;7.452;2023-03-23T11:47:04;98331.41;;;13.56;100.00
30554;BME280;17335;50.720;7.452;2023-03-23T11:52:12;98317.66;;;13.50;100.00
30554;BME280;17335;50.720;7.452;2023-03-23T11:54:45;98302.66;;;13.63;100.00
30554;BME280;17335;50.720;7.452;2023-03-23T11:57:13;98302.44;;;14.01;100.00
30554;BME280;17335;50.720;7.452;2023-03-23T11:59:41;98293.66;;;14.63;100.00
30554;BME280;17335;50.720;7.452;2023-03-23T12:02:34;98279.09;;;14.93;100.00
30554;BME280;17335;50.720;7.452;2023-03-23T12:10:53;98276.16;;;15.29;100.00
30554;BME280;17335;50.720;7.452;2023-03-23T12:13:46;98287.75;;;15.16;100.00
30554;BME280;17335;50.720;7.452;2023-03-23T12:29:58;98288.75;;;14.74;100.00
30554;BME280;17335;50.720;7.452;2023-03-23T12:35:48;98295.28;;;14.86;100.00
30554;BME280;17335;50.720;7.452;2023-03-23T12:38:23;98303.88;;;14.96;100.00
30554;BME280;17335;50.720;7.452;2023-03-23T12:43:47;98302.50;;;15.14;100.00
30554;BME280;17335;50.720;7.452;2023-03-23T12:48:56;98294.41;;;15.14;100.00
30554;BME280;17335;50.720;7.452;2023-03-23T12:56:52;98292.50;;;15.14;100.00
30554;BME280;17335;50.720;7.452;2023-03-23T12:59:43;98291.28;;;15.17;100.00
30554;BME280;17335;50.720;7.452;2023-03-23T13:02:23;98280.41;;;15.04;100.00
30554;BME280;17335;50.720;7.452;2023-03-23T13:04:57;98290.25;;;15.11;100.00
30554;BME280;17335;50.720;7.452;2023-03-23T13:07:28;98284.22;;;15.16;100.00
30554;BME280;17335;50.720;7.452;2023-03-23T13:10:03;98296.47;;;15.12;100.00
30554;BME280;17335;50.720;7.452;2023-03-23T13:12:30;98278.41;;;15.19;100.00
30554;BME280;17335;50.720;7.452;2023-03-23T13:15:00;98278.53;;;15.04;100.00
30554;BME280;17335;50.720;7.452;2023-03-23T13:20:32;98282.91;;;14.70;100.00
30554;BME280;17335;50.720;7.452;2023-03-23T13:26:03;98308.22;;;14.41;100.00
30554;BME280;17335;50.720;7.452;2023-03-23T13:28:32;98302.81;;;14.41;100.00
30554;BME280;17335;50.720;7.452;2023-03-23T13:31:23;98310.41;;;14.31;100.00
30554;BME280;17335;50.720;7.452;2023-03-23T13:33:53;98301.25;;;14.32;100.00
30554;BME280;17335;50.720;7.452;2023-03-23T13:36:36;98305.16;;;14.22;100.00
30554;BME280;17335;50.720;7.452;2023-03-23T13:39:05;98297.16;;;14.14;100.00
30554;BME280;17335;50.720;7.452;2023-03-23T13:41:33;98301.94;;;14.12;100.00
30554;BME280;17335;50.720;7.452;2023-03-23T13:44:17;98313.38;;;14.14;100.00
30554;BME280;17335;50.720;7.452;2023-03-23T13:46:54;98312.78;;;14.19;100.00
30554;BME280;17335;50.720;7.452;2023-03-23T13:49:22;98304.69;;;14.19;100.00
30554;BME280;17335;50.720;7.452;2023-03-23T13:52:16;98289.78;;;14.23;100.00
30554;BME280;17335;50.720;7.452;2023-03-23T13:54:45;98296.22;;;14.22;100.00
30554;BME280;17335;50.720;7.452;2023-03-23T13:57:33;98308.28;;;14.26;100.00
30554;BME280;17335;50.720;7.452;2023-03-23T14:05:43;98276.41;;;14.36;100.00
30554;BME280;17335;50.720;7.452;2023-03-23T14:11:01;98293.28;;;14.45;100.00
30554;BME280;17335;50.720;7.452;2023-03-23T14:16:41;98284.66;;;14.56;100.00
30554;BME280;17335;50.720;7.452;2023-03-23T14:19:29;98290.81;;;14.72;100.00
30554;BME280;17335;50.720;7.452;2023-03-23T14:21:58;98293.16;;;14.81;100.00
30554;BME280;17335;50.720;7.452;2023-03-23T14:26:53;98292.97;;;14.55;100.00
30554;BME280;17335;50.720;7.452;2023-03-23T14:29:20;98290.59;;;14.45;100.00
30554;BME280;17335;50.720;7.452;2023-03-23T14:31:54;98275.81;;;14.41;100.00
30554;BME280;17335;50.720;7.452;2023-03-23T14:34:25;98284.44;;;14.30;100.00
30554;BME280;17335;50.720;7.452;2023-03-23T14:36:53;98283.75;;;14.49;100.00
30554;BME280;17335;50.720;7.452;2023-03-23T14:39:30;98272.75;;;14.51;100.00